sensor_id;sensor_type;location;lat;lon;timestamp;pressure;altitude;pressure_sealevel;temperature;humidity
77975;BME280;67164;51.202;0.278;2023-01-29T00:02:19;102733.85;;;22.19;33.10
77975;BME280;67164;51.202;0.278;2023-01-29T00:04:44;102734.35;;;22.20;33.15
77975;BME280;67164;51.202;0.278;2023-01-29T00:07:10;102734.42;;;22.23;33.21
77975;BME280;67164;51.202;0.278;2023-01-29T00:09:35;102738.68;;;22.15;33.26
77975;BME280;67164;51.202;0.278;2023-01-29T00:12:01;102737.50;;;21.81;33.45
77975;BME280;67164;51.202;0.278;2023-01-29T00:14:27;102736.77;;;22.11;33.31
77975;BME280;67164;51.202;0.278;2023-01-29T00:16:53;102733.39;;;22.17;33.22
77975;BME280;67164;51.202;0.278;2023-01-29T00:19:18;102730.49;;;21.98;33.31
77975;BME280;67164;51.202;0.278;2023-01-29T00:21:43;102728.01;;;21.69;33.27
77975;BME280;67164;51.202;0.278;2023-01-29T00:24:08;102726.09;;;22.13;33.31
77975;BME280;67164;51.202;0.278;2023-01-29T00:26:33;102724.12;;;22.11;33.39
77975;BME280;67164;51.202;0.278;2023-01-29T00:29:09;102718.77;;;21.81;33.44
77975;BME280;67164;51.202;0.278;2023-01-29T00:31:24;102716.64;;;22.07;33.43
77975;BME280;67164;51.202;0.278;2023-01-29T00:33:50;102713.29;;;21.72;33.49
77975;BME280;67164;51.202;0.278;2023-01-29T00:38:41;102705.60;;;21.77;33.46
77975;BME280;67164;51.202;0.278;2023-01-29T00:41:08;102707.37;;;21.69;33.51
77975;BME280;67164;51.202;0.278;2023-01-29T00:43:32;102710.30;;;21.61;33.56
77975;BME280;67164;51.202;0.278;2023-01-29T00:46:02;102710.85;;;21.90;33.51
77975;BME280;67164;51.202;0.278;2023-01-29T00:48:24;102710.43;;;21.88;33.50
77975;BME280;67164;51.202;0.278;2023-01-29T00:50:50;102714.45;;;21.68;33.62
77975;BME280;67164;51.202;0.278;2023-01-29T00:53:15;102714.17;;;21.37;33.70
77975;BME280;67164;51.202;0.278;2023-01-29T00:55:40;102713.83;;;21.61;33.69
77975;BME280;67164;51.202;0.278;2023-01-29T00:58:06;102711.05;;;21.62;33.64
77975;BME280;67164;51.202;0.278;2023-01-29T01:00:32;102708.89;;;21.68;33.52
77975;BME280;67164;51.202;0.278;2023-01-29T01:02:57;102713.47;;;21.57;33.69
77975;BME280;67164;51.202;0.278;2023-01-29T01:05:24;102716.82;;;21.55;33.73
77975;BME280;67164;51.202;0.278;2023-01-29T01:07:51;102721.88;;;21.46;33.83
77975;BME280;67164;51.202;0.278;2023-01-29T01:10:16;102724.01;;;21.58;33.93
77975;BME280;67164;51.202;0.278;2023-01-29T01:12:39;102717.18;;;21.41;33.84
77975;BME280;67164;51.202;0.278;2023-01-29T01:15:07;102716.50;;;21.38;33.78
77975;BME280;67164;51.202;0.278;2023-01-29T01:17:31;102718.90;;;21.36;33.86
77975;BME280;67164;51.202;0.278;2023-01-29T01:19:56;102717.78;;;21.36;33.94
77975;BME280;67164;51.202;0.278;2023-01-29T01:22:22;102719.31;;;21.24;33.99
77975;BME280;67164;51.202;0.278;2023-01-29T01:24:48;102716.26;;;21.19;34.04
77975;BME280;67164;51.202;0.278;2023-01-29T01:27:14;102717.00;;;21.23;33.98
77975;BME280;67164;51.202;0.278;2023-01-29T01:29:39;102717.21;;;21.19;34.06
77975;BME280;67164;51.202;0.278;2023-01-29T01:32:05;102720.20;;;21.09;34.06
77975;BME280;67164;51.202;0.278;2023-01-29T01:34:31;102725.56;;;21.04;34.14
77975;BME280;67164;51.202;0.278;2023-01-29T01:36:56;102723.27;;;21.08;34.05
77975;BME280;67164;51.202;0.278;2023-01-29T01:39:22;102720.32;;;21.18;34.21
77975;BME280;67164;51.202;0.278;2023-01-29T01:41:47;102713.33;;;20.87;34.24
77975;BME280;67164;51.202;0.278;2023-01-29T01:46:38;102715.60;;;21.19;34.19
77975;BME280;67164;51.202;0.278;2023-01-29T01:49:07;102715.65;;;20.89;34.23
77975;BME280;67164;51.202;0.278;2023-01-29T01:51:32;102715.08;;;21.37;34.21
77975;BME280;67164;51.202;0.278;2023-01-29T01:53:58;102711.69;;;21.09;34.18
77975;BME280;67164;51.202;0.278;2023-01-29T01:56:26;102708.80;;;20.87;34.16
77975;BME280;67164;51.202;0.278;2023-01-29T01:58:49;102705.58;;;21.06;34.22
77975;BME280;67164;51.202;0.278;2023-01-29T02:01:12;102705.31;;;21.07;34.16
77975;BME280;67164;51.202;0.278;2023-01-29T02:03:42;102702.91;;;21.04;34.18
77975;BME280;67164;51.202;0.278;2023-01-29T02:06:03;102700.40;;;20.92;34.25
77975;BME280;67164;51.202;0.278;2023-01-29T02:08:36;102699.16;;;20.90;34.27
77975;BME280;67164;51.202;0.278;2023-01-29T02:10:54;102696.98;;;20.91;34.21
77975;BME280;67164;51.202;0.278;2023-01-29T02:13:20;102701.03;;;20.66;34.21
77975;BME280;67164;51.202;0.278;2023-01-29T02:15:46;102703.41;;;20.85;34.24
77975;BME280;67164;51.202;0.278;2023-01-29T02:18:12;102702.82;;;21.01;34.29
77975;BME280;67164;51.202;0.278;2023-01-29T02:20:37;102694.98;;;20.79;34.28
77975;BME280;67164;51.202;0.278;2023-01-29T02:25:45;102695.00;;;20.57;34.24
77975;BME280;67164;51.202;0.278;2023-01-29T02:28:10;102693.65;;;20.54;34.26
77975;BME280;67164;51.202;0.278;2023-01-29T02:30:23;102694.39;;;20.41;34.37
77975;BME280;67164;51.202;0.278;2023-01-29T02:32:49;102691.07;;;20.96;34.23
77975;BME280;67164;51.202;0.278;2023-01-29T02:35:21;102689.10;;;20.52;34.16
77975;BME280;67164;51.202;0.278;2023-01-29T02:37:37;102694.47;;;20.68;34.31
77975;BME280;67164;51.202;0.278;2023-01-29T02:40:07;102699.68;;;20.77;34.21
77975;BME280;67164;51.202;0.278;2023-01-29T02:42:31;102709.85;;;20.93;34.24
77975;BME280;67164;51.202;0.278;2023-01-29T02:44:55;102712.56;;;20.89;34.34
77975;BME280;67164;51.202;0.278;2023-01-29T02:47:20;102707.67;;;20.57;34.37
77975;BME280;67164;51.202;0.278;2023-01-29T02:49:47;102704.57;;;20.69;34.53
77975;BME280;67164;51.202;0.278;2023-01-29T02:52:14;102700.54;;;20.41;34.54
77975;BME280;67164;51.202;0.278;2023-01-29T02:54:40;102698.96;;;20.74;34.44
77975;BME280;67164;51.202;0.278;2023-01-29T02:57:08;102703.58;;;20.85;34.28
77975;BME280;67164;51.202;0.278;2023-01-29T02:59:29;102698.69;;;20.76;34.30
77975;BME280;67164;51.202;0.278;2023-01-29T03:01:54;102699.98;;;20.80;34.29
77975;BME280;67164;51.202;0.278;2023-01-29T03:04:20;102701.64;;;20.76;34.28
77975;BME280;67164;51.202;0.278;2023-01-29T03:06:44;102696.04;;;20.68;34.39
77975;BME280;67164;51.202;0.278;2023-01-29T03:09:11;102692.61;;;20.58;34.48
77975;BME280;67164;51.202;0.278;2023-01-29T03:11:43;102692.02;;;20.37;34.68
77975;BME280;67164;51.202;0.278;2023-01-29T03:14:02;102691.63;;;20.48;34.56
77975;BME280;67164;51.202;0.278;2023-01-29T03:16:27;102692.93;;;20.63;34.41
77975;BME280;67164;51.202;0.278;2023-01-29T03:18:53;102690.73;;;20.49;34.53
77975;BME280;67164;51.202;0.278;2023-01-29T03:21:20;102681.61;;;20.33;34.45
77975;BME280;67164;51.202;0.278;2023-01-29T03:23:40;102679.36;;;20.59;34.66
77975;BME280;67164;51.202;0.278;2023-01-29T03:26:06;102681.23;;;20.15;34.84
77975;BME280;67164;51.202;0.278;2023-01-29T03:28:32;102680.86;;;20.23;34.76
77975;BME280;67164;51.202;0.278;2023-01-29T03:31:01;102680.66;;;20.30;34.94
77975;BME280;67164;51.202;0.278;2023-01-29T03:33:25;102683.03;;;20.15;34.84
77975;BME280;67164;51.202;0.278;2023-01-29T03:35:52;102679.32;;;20.23;34.74
77975;BME280;67164;51.202;0.278;2023-01-29T03:38:15;102680.81;;;20.01;34.70
77975;BME280;67164;51.202;0.278;2023-01-29T03:40:46;102680.29;;;20.17;34.81
77975;BME280;67164;51.202;0.278;2023-01-29T03:43:12;102679.36;;;20.36;34.85
77975;BME280;67164;51.202;0.278;2023-01-29T03:46:03;102678.71;;;20.09;34.89
77975;BME280;67164;51.202;0.278;2023-01-29T03:48:05;102680.94;;;20.41;34.83
77975;BME280;67164;51.202;0.278;2023-01-29T03:50:35;102677.27;;;20.06;34.92
77975;BME280;67164;51.202;0.278;2023-01-29T03:52:53;102674.95;;;20.31;34.85
77975;BME280;67164;51.202;0.278;2023-01-29T03:55:16;102672.12;;;19.89;34.99
77975;BME280;67164;51.202;0.278;2023-01-29T03:57:43;102662.55;;;20.01;35.14
77975;BME280;67164;51.202;0.278;2023-01-29T04:00:11;102661.89;;;19.94;34.94
77975;BME280;67164;51.202;0.278;2023-01-29T04:02:37;102663.09;;;19.98;34.92
77975;BME280;67164;51.202;0.278;2023-01-29T04:05:01;102661.16;;;19.89;34.97
77975;BME280;67164;51.202;0.278;2023-01-29T04:07:24;102663.81;;;19.71;35.13
77975;BME280;67164;51.202;0.278;2023-01-29T04:09:56;102657.25;;;19.72;35.13
77975;BME280;67164;51.202;0.278;2023-01-29T04:12:19;102662.71;;;19.77;35.07
77975;BME280;67164;51.202;0.278;2023-01-29T04:14:39;102662.31;;;20.03;34.98
77975;BME280;67164;51.202;0.278;2023-01-29T04:17:10;102665.34;;;19.75;35.04
77975;BME280;67164;51.202;0.278;2023-01-29T04:19:33;102667.78;;;19.68;35.12
77975;BME280;67164;51.202;0.278;2023-01-29T04:22:02;102663.66;;;19.70;35.10
77975;BME280;67164;51.202;0.278;2023-01-29T04:24:22;102657.18;;;19.84;35.20
77975;BME280;67164;51.202;0.278;2023-01-29T04:26:57;102650.04;;;19.86;35.15
77975;BME280;67164;51.202;0.278;2023-01-29T04:29:23;102654.46;;;19.83;35.18
77975;BME280;67164;51.202;0.278;2023-01-29T04:31:44;102652.16;;;19.85;35.19
77975;BME280;67164;51.202;0.278;2023-01-29T04:34:14;102649.24;;;20.00;35.24
77975;BME280;67164;51.202;0.278;2023-01-29T04:36:37;102647.53;;;19.90;35.11
77975;BME280;67164;51.202;0.278;2023-01-29T04:39:02;102641.58;;;19.58;35.22
77975;BME280;67164;51.202;0.278;2023-01-29T04:41:25;102638.21;;;19.82;35.20
77975;BME280;67164;51.202;0.278;2023-01-29T04:43:55;102638.29;;;19.71;35.29
77975;BME280;67164;51.202;0.278;2023-01-29T04:46:15;102638.32;;;19.89;35.37
77975;BME280;67164;51.202;0.278;2023-01-29T04:48:47;102635.81;;;19.70;35.31
77975;BME280;67164;51.202;0.278;2023-01-29T04:51:09;102634.06;;;19.47;35.30
77975;BME280;67164;51.202;0.278;2023-01-29T04:53:38;102638.24;;;19.53;35.45
77975;BME280;67164;51.202;0.278;2023-01-29T04:55:58;102638.76;;;19.45;35.28
77975;BME280;67164;51.202;0.278;2023-01-29T04:58:25;102638.30;;;19.68;35.57
77975;BME280;67164;51.202;0.278;2023-01-29T05:00:48;102635.10;;;19.53;35.49
77975;BME280;67164;51.202;0.278;2023-01-29T05:03:13;102626.97;;;19.55;35.45
77975;BME280;67164;51.202;0.278;2023-01-29T05:05:39;102628.09;;;19.66;35.60
77975;BME280;67164;51.202;0.278;2023-01-29T05:08:03;102628.09;;;19.47;35.52
77975;BME280;67164;51.202;0.278;2023-01-29T05:10:28;102625.78;;;19.42;35.54
77975;BME280;67164;51.202;0.278;2023-01-29T05:12:58;102623.02;;;19.34;35.64
77975;BME280;67164;51.202;0.278;2023-01-29T05:15:23;102625.38;;;19.32;35.67
77975;BME280;67164;51.202;0.278;2023-01-29T05:17:44;102622.62;;;19.37;35.59
77975;BME280;67164;51.202;0.278;2023-01-29T05:20:12;102620.07;;;19.29;35.71
77975;BME280;67164;51.202;0.278;2023-01-29T05:22:36;102613.63;;;19.51;35.64
77975;BME280;67164;51.202;0.278;2023-01-29T05:25:00;102609.94;;;19.49;35.69
77975;BME280;67164;51.202;0.278;2023-01-29T05:27:31;102607.16;;;19.46;35.77
77975;BME280;67164;51.202;0.278;2023-01-29T05:29:51;102602.98;;;19.54;35.64
77975;BME280;67164;51.202;0.278;2023-01-29T05:32:16;102599.86;;;19.43;35.70
77975;BME280;67164;51.202;0.278;2023-01-29T05:34:42;102594.88;;;19.17;35.79
77975;BME280;67164;51.202;0.278;2023-01-29T05:37:08;102591.21;;;19.32;35.86
77975;BME280;67164;51.202;0.278;2023-01-29T05:39:47;102593.84;;;19.20;35.99
77975;BME280;67164;51.202;0.278;2023-01-29T05:41:59;102591.64;;;18.91;35.78
77975;BME280;67164;51.202;0.278;2023-01-29T05:44:25;102590.59;;;19.04;35.86
77975;BME280;67164;51.202;0.278;2023-01-29T05:46:50;102585.61;;;19.40;35.72
77975;BME280;67164;51.202;0.278;2023-01-29T05:49:16;102583.35;;;19.01;35.85
77975;BME280;67164;51.202;0.278;2023-01-29T05:51:41;102575.61;;;19.10;35.77
77975;BME280;67164;51.202;0.278;2023-01-29T05:54:09;102569.35;;;19.16;35.90
77975;BME280;67164;51.202;0.278;2023-01-29T05:56:33;102567.84;;;19.27;35.84
77975;BME280;67164;51.202;0.278;2023-01-29T05:58:58;102563.62;;;19.32;35.74
77975;BME280;67164;51.202;0.278;2023-01-29T06:01:25;102562.60;;;18.87;35.99
77975;BME280;67164;51.202;0.278;2023-01-29T06:03:50;102564.02;;;18.90;35.91
77975;BME280;67164;51.202;0.278;2023-01-29T06:06:15;102561.79;;;19.30;35.73
77975;BME280;67164;51.202;0.278;2023-01-29T06:08:45;102563.23;;;19.23;35.81
77975;BME280;67164;51.202;0.278;2023-01-29T06:11:09;102556.52;;;18.99;36.09
77975;BME280;67164;51.202;0.278;2023-01-29T06:13:35;102558.68;;;18.88;35.90
77975;BME280;67164;51.202;0.278;2023-01-29T06:15:58;102557.95;;;19.18;35.87
77975;BME280;67164;51.202;0.278;2023-01-29T06:18:24;102560.51;;;19.16;35.88
77975;BME280;67164;51.202;0.278;2023-01-29T06:20:51;102560.78;;;19.04;36.02
77975;BME280;67164;51.202;0.278;2023-01-29T06:23:15;102564.09;;;19.07;36.03
77975;BME280;67164;51.202;0.278;2023-01-29T06:25:41;102568.38;;;19.05;36.08
77975;BME280;67164;51.202;0.278;2023-01-29T06:28:06;102571.52;;;18.99;36.11
77975;BME280;67164;51.202;0.278;2023-01-29T06:30:32;102575.27;;;18.87;36.23
77975;BME280;67164;51.202;0.278;2023-01-29T06:32:58;102575.87;;;18.91;36.12
77975;BME280;67164;51.202;0.278;2023-01-29T06:35:23;102576.66;;;18.94;36.09
77975;BME280;67164;51.202;0.278;2023-01-29T06:37:48;102576.16;;;18.50;36.35
77975;BME280;67164;51.202;0.278;2023-01-29T06:40:14;102570.12;;;18.49;36.29
77975;BME280;67164;51.202;0.278;2023-01-29T06:42:39;102571.18;;;18.77;36.32
77975;BME280;67164;51.202;0.278;2023-01-29T06:45:06;102567.80;;;18.80;35.99
77975;BME280;67164;51.202;0.278;2023-01-29T06:47:35;102568.79;;;18.95;36.07
77975;BME280;67164;51.202;0.278;2023-01-29T06:49:56;102568.33;;;18.82;36.21
77975;BME280;67164;51.202;0.278;2023-01-29T06:52:22;102565.98;;;18.86;36.18
77975;BME280;67164;51.202;0.278;2023-01-29T06:54:47;102565.48;;;18.99;36.02
77975;BME280;67164;51.202;0.278;2023-01-29T06:57:13;102568.35;;;18.86;36.07
77975;BME280;67164;51.202;0.278;2023-01-29T06:59:38;102567.28;;;18.81;36.15
77975;BME280;67164;51.202;0.278;2023-01-29T07:02:04;102566.48;;;18.81;36.11
77975;BME280;67164;51.202;0.278;2023-01-29T07:04:30;102565.93;;;18.63;36.32
77975;BME280;67164;51.202;0.278;2023-01-29T07:06:55;102559.60;;;18.72;36.30
77975;BME280;67164;51.202;0.278;2023-01-29T07:09:21;102563.42;;;18.70;36.27
77975;BME280;67164;51.202;0.278;2023-01-29T07:11:47;102562.51;;;18.85;36.09
77975;BME280;67164;51.202;0.278;2023-01-29T07:14:12;102560.06;;;18.65;36.40
77975;BME280;67164;51.202;0.278;2023-01-29T07:16:37;102560.73;;;18.65;36.38
77975;BME280;67164;51.202;0.278;2023-01-29T07:19:03;102555.46;;;18.68;36.33
77975;BME280;67164;51.202;0.278;2023-01-29T07:21:28;102558.13;;;18.73;36.35
77975;BME280;67164;51.202;0.278;2023-01-29T07:23:55;102558.33;;;18.68;36.24
77975;BME280;67164;51.202;0.278;2023-01-29T07:26:19;102563.87;;;18.68;36.24
77975;BME280;67164;51.202;0.278;2023-01-29T07:28:45;102565.51;;;18.60;36.35
77975;BME280;67164;51.202;0.278;2023-01-29T07:31:12;102571.66;;;18.57;36.39
77975;BME280;67164;51.202;0.278;2023-01-29T07:33:37;102568.96;;;18.53;36.43
77975;BME280;67164;51.202;0.278;2023-01-29T07:36:06;102565.52;;;18.42;36.54
77975;BME280;67164;51.202;0.278;2023-01-29T07:38:28;102561.07;;;18.65;36.61
77975;BME280;67164;51.202;0.278;2023-01-29T07:40:54;102563.98;;;18.47;36.50
77975;BME280;67164;51.202;0.278;2023-01-29T07:43:31;102573.69;;;18.12;37.16
77975;BME280;67164;51.202;0.278;2023-01-29T07:45:45;102568.08;;;18.83;36.43
77975;BME280;67164;51.202;0.278;2023-01-29T07:48:12;102570.37;;;19.11;36.17
77975;BME280;67164;51.202;0.278;2023-01-29T07:50:42;102571.62;;;19.30;36.06
77975;BME280;67164;51.202;0.278;2023-01-29T07:53:03;102568.48;;;19.49;36.01
77975;BME280;67164;51.202;0.278;2023-01-29T07:55:29;102557.69;;;19.07;36.35
77975;BME280;67164;51.202;0.278;2023-01-29T07:57:55;102553.93;;;19.41;36.48
77975;BME280;67164;51.202;0.278;2023-01-29T08:00:21;102553.09;;;19.35;36.60
77975;BME280;67164;51.202;0.278;2023-01-29T08:02:46;102550.92;;;19.37;36.68
77975;BME280;67164;51.202;0.278;2023-01-29T08:05:12;102549.18;;;19.50;36.43
77975;BME280;67164;51.202;0.278;2023-01-29T08:07:36;102546.60;;;20.06;35.29
77975;BME280;67164;51.202;0.278;2023-01-29T08:10:02;102543.59;;;19.71;35.01
77975;BME280;67164;51.202;0.278;2023-01-29T08:12:27;102537.54;;;19.82;35.01
77975;BME280;67164;51.202;0.278;2023-01-29T08:14:56;102540.56;;;19.78;35.42
77975;BME280;67164;51.202;0.278;2023-01-29T08:17:19;102536.07;;;19.84;35.87
77975;BME280;67164;51.202;0.278;2023-01-29T08:19:44;102532.46;;;19.98;35.95
77975;BME280;67164;51.202;0.278;2023-01-29T08:22:10;102530.39;;;20.27;35.68
77975;BME280;67164;51.202;0.278;2023-01-29T08:24:40;102533.13;;;20.24;35.59
77975;BME280;67164;51.202;0.278;2023-01-29T08:27:01;102532.00;;;20.15;35.70
77975;BME280;67164;51.202;0.278;2023-01-29T08:29:46;102526.63;;;19.97;35.72
77975;BME280;67164;51.202;0.278;2023-01-29T08:31:52;102529.22;;;19.77;36.00
77975;BME280;67164;51.202;0.278;2023-01-29T08:34:18;102526.31;;;20.37;35.92
77975;BME280;67164;51.202;0.278;2023-01-29T08:37:01;102530.34;;;19.98;35.83
77975;BME280;67164;51.202;0.278;2023-01-29T08:39:10;102525.68;;;20.39;35.71
77975;BME280;67164;51.202;0.278;2023-01-29T08:41:36;102523.15;;;20.08;35.83
77975;BME280;67164;51.202;0.278;2023-01-29T08:46:28;102519.52;;;20.47;35.57
77975;BME280;67164;51.202;0.278;2023-01-29T08:48:53;102521.02;;;20.52;35.47
77975;BME280;67164;51.202;0.278;2023-01-29T08:51:20;102522.09;;;20.44;35.82
77975;BME280;67164;51.202;0.278;2023-01-29T08:53:45;102522.96;;;20.71;35.49
77975;BME280;67164;51.202;0.278;2023-01-29T08:56:12;102526.50;;;20.87;35.43
77975;BME280;67164;51.202;0.278;2023-01-29T08:58:36;102521.53;;;20.90;35.62
77975;BME280;67164;51.202;0.278;2023-01-29T09:01:13;102524.48;;;20.90;35.54
77975;BME280;67164;51.202;0.278;2023-01-29T09:03:28;102521.68;;;20.85;35.55
77975;BME280;67164;51.202;0.278;2023-01-29T09:05:55;102521.66;;;21.01;35.38
77975;BME280;67164;51.202;0.278;2023-01-29T09:08:19;102521.80;;;21.43;35.26
77975;BME280;67164;51.202;0.278;2023-01-29T09:10:45;102520.51;;;21.31;35.32
77975;BME280;67164;51.202;0.278;2023-01-29T09:13:12;102516.55;;;21.12;35.49
77975;BME280;67164;51.202;0.278;2023-01-29T09:15:38;102519.47;;;21.25;35.35
77975;BME280;67164;51.202;0.278;2023-01-29T09:18:03;102525.43;;;21.08;35.47
77975;BME280;67164;51.202;0.278;2023-01-29T09:20:29;102519.04;;;21.01;35.28
77975;BME280;67164;51.202;0.278;2023-01-29T09:22:54;102520.53;;;21.05;35.16
77975;BME280;67164;51.202;0.278;2023-01-29T09:25:20;102517.38;;;21.05;35.19
77975;BME280;67164;51.202;0.278;2023-01-29T09:27:46;102514.01;;;21.68;34.92
77975;BME280;67164;51.202;0.278;2023-01-29T09:30:13;102515.26;;;21.42;34.79
77975;BME280;67164;51.202;0.278;2023-01-29T09:32:38;102514.11;;;21.37;35.09
77975;BME280;67164;51.202;0.278;2023-01-29T09:35:04;102517.51;;;21.47;35.22
77975;BME280;67164;51.202;0.278;2023-01-29T09:37:29;102517.47;;;21.29;35.45
77975;BME280;67164;51.202;0.278;2023-01-29T09:39:55;102517.29;;;21.30;35.44
77975;BME280;67164;51.202;0.278;2023-01-29T09:42:25;102515.77;;;21.15;35.57
77975;BME280;67164;51.202;0.278;2023-01-29T09:44:54;102516.95;;;21.16;35.60
77975;BME280;67164;51.202;0.278;2023-01-29T09:47:15;102516.78;;;21.13;35.86
77975;BME280;67164;51.202;0.278;2023-01-29T09:49:41;102512.74;;;21.02;35.85
77975;BME280;67164;51.202;0.278;2023-01-29T09:52:08;102518.55;;;21.01;36.24
77975;BME280;67164;51.202;0.278;2023-01-29T09:54:33;102515.24;;;21.46;35.71
77975;BME280;67164;51.202;0.278;2023-01-29T09:56:56;102517.75;;;20.32;36.07
77975;BME280;67164;51.202;0.278;2023-01-29T09:59:23;102513.93;;;20.00;36.11
77975;BME280;67164;51.202;0.278;2023-01-29T10:04:30;102510.20;;;21.20;34.06
77975;BME280;67164;51.202;0.278;2023-01-29T10:06:52;102511.34;;;21.15;33.30
77975;BME280;67164;51.202;0.278;2023-01-29T10:11:44;102508.74;;;20.92;33.68
77975;BME280;67164;51.202;0.278;2023-01-29T10:14:08;102512.33;;;21.30;32.95
77975;BME280;67164;51.202;0.278;2023-01-29T10:16:34;102514.43;;;21.37;32.95
77975;BME280;67164;51.202;0.278;2023-01-29T10:18:59;102511.27;;;19.60;36.07
77975;BME280;67164;51.202;0.278;2023-01-29T10:21:27;102509.61;;;20.13;35.44
77975;BME280;67164;51.202;0.278;2023-01-29T10:23:42;102503.01;;;19.68;36.44
77975;BME280;67164;51.202;0.278;2023-01-29T10:26:12;102502.26;;;19.14;37.09
77975;BME280;67164;51.202;0.278;2023-01-29T10:28:37;102500.90;;;20.07;36.29
77975;BME280;67164;51.202;0.278;2023-01-29T10:31:03;102502.30;;;19.73;36.87
77975;BME280;67164;51.202;0.278;2023-01-29T10:33:27;102503.79;;;20.23;37.17
77975;BME280;67164;51.202;0.278;2023-01-29T10:35:50;102502.65;;;20.04;37.49
77975;BME280;67164;51.202;0.278;2023-01-29T10:38:23;102502.26;;;20.86;37.47
77975;BME280;67164;51.202;0.278;2023-01-29T10:40:44;102502.65;;;19.94;38.81
77975;BME280;67164;51.202;0.278;2023-01-29T10:43:07;102495.92;;;20.41;36.43
77975;BME280;67164;51.202;0.278;2023-01-29T10:45:36;102498.61;;;20.57;36.20
77975;BME280;67164;51.202;0.278;2023-01-29T10:48:08;102489.66;;;21.05;35.24
77975;BME280;67164;51.202;0.278;2023-01-29T10:50:39;102491.21;;;19.57;36.79
77975;BME280;67164;51.202;0.278;2023-01-29T10:52:58;102495.22;;;17.76;40.28
77975;BME280;67164;51.202;0.278;2023-01-29T10:55:23;102489.96;;;19.26;38.20
77975;BME280;67164;51.202;0.278;2023-01-29T10:57:51;102487.75;;;19.44;37.65
77975;BME280;67164;51.202;0.278;2023-01-29T11:00:09;102481.72;;;19.70;37.51
77975;BME280;67164;51.202;0.278;2023-01-29T11:02:30;102481.01;;;19.50;37.56
77975;BME280;67164;51.202;0.278;2023-01-29T11:04:56;102477.08;;;19.45;38.67
77975;BME280;67164;51.202;0.278;2023-01-29T11:07:21;102471.63;;;19.56;38.32
77975;BME280;67164;51.202;0.278;2023-01-29T11:09:51;102469.83;;;19.34;38.91
77975;BME280;67164;51.202;0.278;2023-01-29T11:12:14;102464.39;;;19.24;38.73
77975;BME280;67164;51.202;0.278;2023-01-29T11:14:43;102458.41;;;19.93;37.91
77975;BME280;67164;51.202;0.278;2023-01-29T11:17:02;102457.48;;;19.78;37.68
77975;BME280;67164;51.202;0.278;2023-01-29T11:21:57;102451.76;;;19.51;37.89
77975;BME280;67164;51.202;0.278;2023-01-29T11:24:19;102448.03;;;19.40;37.93
77975;BME280;67164;51.202;0.278;2023-01-29T11:26:47;102438.96;;;19.46;38.13
77975;BME280;67164;51.202;0.278;2023-01-29T11:31:36;102429.20;;;18.31;40.61
77975;BME280;67164;51.202;0.278;2023-01-29T11:34:04;102423.34;;;18.69;40.73
77975;BME280;67164;51.202;0.278;2023-01-29T11:36:30;102415.72;;;18.18;41.63
77975;BME280;67164;51.202;0.278;2023-01-29T11:41:16;102406.29;;;18.53;41.01
77975;BME280;67164;51.202;0.278;2023-01-29T11:43:41;102403.41;;;19.07;40.87
77975;BME280;67164;51.202;0.278;2023-01-29T11:46:12;102399.17;;;19.72;39.38
77975;BME280;67164;51.202;0.278;2023-01-29T11:48:40;102392.70;;;21.22;37.20
77975;BME280;67164;51.202;0.278;2023-01-29T11:51:00;102385.78;;;19.74;39.20
77975;BME280;67164;51.202;0.278;2023-01-29T11:53:33;102385.10;;;19.58;41.14
77975;BME280;67164;51.202;0.278;2023-01-29T11:55:49;102381.81;;;19.36;43.00
77975;BME280;67164;51.202;0.278;2023-01-29T11:58:19;102378.01;;;19.28;43.30
77975;BME280;67164;51.202;0.278;2023-01-29T12:00:44;102370.35;;;19.38;43.71
77975;BME280;67164;51.202;0.278;2023-01-29T12:03:11;102366.97;;;19.24;43.08
77975;BME280;67164;51.202;0.278;2023-01-29T12:05:32;102362.17;;;19.45;42.83
77975;BME280;67164;51.202;0.278;2023-01-29T12:07:59;102353.98;;;19.17;43.01
77975;BME280;67164;51.202;0.278;2023-01-29T12:10:31;102350.32;;;20.00;42.36
77975;BME280;67164;51.202;0.278;2023-01-29T12:12:49;102351.41;;;19.62;42.55
77975;BME280;67164;51.202;0.278;2023-01-29T12:15:20;102347.24;;;19.75;42.06
77975;BME280;67164;51.202;0.278;2023-01-29T12:17:40;102335.89;;;21.32;38.92
77975;BME280;67164;51.202;0.278;2023-01-29T12:20:10;102330.35;;;20.93;38.33
77975;BME280;67164;51.202;0.278;2023-01-29T12:22:38;102314.82;;;21.39;36.84
77975;BME280;67164;51.202;0.278;2023-01-29T12:24:58;102315.17;;;21.11;36.23
77975;BME280;67164;51.202;0.278;2023-01-29T12:27:26;102313.50;;;19.94;37.16
77975;BME280;67164;51.202;0.278;2023-01-29T12:29:54;102311.98;;;20.14;37.44
77975;BME280;67164;51.202;0.278;2023-01-29T12:32:24;102302.08;;;19.86;36.60
77975;BME280;67164;51.202;0.278;2023-01-29T12:34:44;102297.65;;;20.39;36.44
77975;BME280;67164;51.202;0.278;2023-01-29T12:37:11;102292.39;;;20.96;35.66
77975;BME280;67164;51.202;0.278;2023-01-29T12:39:30;102290.12;;;20.34;35.80
77975;BME280;67164;51.202;0.278;2023-01-29T12:41:58;102284.78;;;20.41;36.10
77975;BME280;67164;51.202;0.278;2023-01-29T12:44:27;102280.49;;;20.22;37.65
77975;BME280;67164;51.202;0.278;2023-01-29T12:46:50;102281.62;;;19.39;41.08
77975;BME280;67164;51.202;0.278;2023-01-29T12:49:17;102276.76;;;19.12;41.44
77975;BME280;67164;51.202;0.278;2023-01-29T12:51:44;102275.33;;;19.87;40.79
77975;BME280;67164;51.202;0.278;2023-01-29T12:54:05;102269.57;;;20.99;37.73
77975;BME280;67164;51.202;0.278;2023-01-29T12:56:33;102264.56;;;21.07;34.93
77975;BME280;67164;51.202;0.278;2023-01-29T12:58:55;102257.95;;;20.81;35.55
77975;BME280;67164;51.202;0.278;2023-01-29T13:01:26;102252.41;;;20.69;36.21
77975;BME280;67164;51.202;0.278;2023-01-29T13:03:50;102248.06;;;19.78;37.94